Terminal Aerodrome Forecast
Issued by NWS New Orleans/Baton Rouge, LA

Home | Current Version | Previous Version | Text Only | Print | Product List | Glossary On
Versions: 1 2 3 4 5 6 7 8 9 10 11 12 13
000
FTUS44 KLIX 060532
TAFBTR
TAF
KBTR 060532Z 0606/0706 19007KT P6SM SKC
     FM060800 13004KT P6SM BKN200
     FM061200 VRB03KT P6SM SCT100
     FM061800 19007KT P6SM SCT200=

USA.gov is the U.S. government's official web portal to all federal, state and local government web resources and services.